Share

Ackley, IA

Jensen Farm (KIAIOWAF2) Elev 1129 ft | 42.50 °N, 93.20 °W | Change Station

Current weather conditions updated 46 seconds ago

Mostly Cloudy
Mostly Cloudy
76.5 °F
Feels Like 78 °F
N
15.0
Wind Variable Wind from SSW
Gusts 19.0 mph
Sunrise 6:23 AM
Sunset 7:59 PM
Moon Waning Gibbous

Today is forecast to be nearly the same temperature as yesterday. A few thunderstorms possible.

Pressure 29.99 in
Visibility 10.0 miles
Clouds Mostly Cloudy 8500 ft
Heat Index 78 °F
Dew Point 53 °F
Humidity 44%
Rainfall 0.25 in
Snow Depth Not available.
UV 5 out of 16
Pollen 8.50 out of 12
Air Quality Not available.
Flu Activity Sporadic
METAR KIFA 201935Z AUTO 19012KT 10SM BKN085 26/12 A2999 RMK AO2 T02560118

More Conditions Fewer Conditions

Pressure 29.99 in
Visibility 10.0 miles
Clouds Mostly Cloudy 8500 ft
Heat Index 78 °F
Dew Point 53 °F
Humidity 44%
Rainfall 0.25 in
Snow Depth Not available.
UV 5 out of 16
Pollen 8.50 out of 12
Air Quality Not available.
Flu Activity Sporadic
METAR KIFA 201935Z AUTO 19012KT 10SM BKN085 26/12 A2999 RMK AO2 T02560118

More Conditions Fewer Conditions

10-Day Weather Forecast

Almanac

Astronomy

Apr. 20, 2014 Rise Set
Actual Time 6:23 AM CDT 7:59 PM CDT
Civil Twilight 5:53 AM CDT 8:29 PM CDT
Nautical Twilight 5:17 AM CDT 9:05 PM CDT
Astronomical Twilight 4:39 AM CDT 9:44 PM CDT
Moon 12:42 AM CDT 10:41 AM CDT
Length of Visible Light 14h 36m
Length of Day
13h 36m
Tomorrow will be 2m 41s longer.
Waning Gibbous, 67% of the Moon is Illuminated
Today
Waning Gibbous
Apr 22
Last Quarter
Apr 29
New
May 6
First Quarter
May 14
Full

Today's Extremes

State Highs State Lows

Community

  • Morning Sun
    Morning Sun
  • after rain
    after rain
  • Columbine
    Columbine
  • Easter Sunrise
    Easter Sunrise
  • Easter Eve - The Promise - Lake Palestine, TX
    Easter Eve - The Promise - Lake Palestine, TX

WunderPhotos

Upload Photos

1,703,321 photos uploaded!

WunderBlogs® & News

Nearby

Snow Depth

Station Depth Elevation
No new snow has been reported.

Coastal Water Temperatures

Place Temperature
No Stations Reporting

Earthquake Activity

City Distance Mag. Time & Date
No recent earthquake activity has been reported nearby.
Minimum magnitude displayed is 2.5.

Nearby Weather Stations

Station Location Temp. Heat Index Dew Point Humidity Wind Precip. Elev Updated Type
Jensen Farm, Iowa Falls, IA 76.5 °F 78 °F 53 °F 44% SSW  at  15.0 mph 0.00 in / hr 1129 ft 2:51 PM CDT Rapid Fire
MesoWest ARGON , Bradford, IA 68 °F - - - North  at  - 0.00 in / hr 1198 ft 1:15 PM CDT MADIS
Meyer Agri-Air, Wellsburg, IA 75.5 °F 78 °F 58 °F 55% SSW  at  7.0 mph 0.00 in / hr 1093 ft 2:44 PM CDT Normal
Beeds Addition, Hampton, IA 63.3 °F - 61 °F 93% NE  at  3.8 mph 0.00 in / hr 1145 ft 2:52 PM CDT Rapid Fire

Show More Stations Show Fewer Stations

What do you think?

We're not finished. Please let us know what you like, what you don't like, and what you are still missing.